sensor_id;sensor_type;location;lat;lon;timestamp;temperature;humidity
19039;DHT22;9652;49.014;12.052;2023-05-07T00:02:23;16.00;60.40
19039;DHT22;9652;49.014;12.052;2023-05-07T00:04:52;16.00;60.50
19039;DHT22;9652;49.014;12.052;2023-05-07T00:07:19;15.90;60.70
19039;DHT22;9652;49.014;12.052;2023-05-07T00:09:46;15.90;60.70
19039;DHT22;9652;49.014;12.052;2023-05-07T00:12:13;15.90;60.80
19039;DHT22;9652;49.014;12.052;2023-05-07T00:14:40;15.80;60.90
19039;DHT22;9652;49.014;12.052;2023-05-07T00:17:07;15.80;61.00
19039;DHT22;9652;49.014;12.052;2023-05-07T00:19:34;15.80;61.10
19039;DHT22;9652;49.014;12.052;2023-05-07T00:22:03;15.80;61.20
19039;DHT22;9652;49.014;12.052;2023-05-07T00:24:30;15.80;61.40
19039;DHT22;9652;49.014;12.052;2023-05-07T00:26:57;15.70;61.30
19039;DHT22;9652;49.014;12.052;2023-05-07T00:29:24;15.70;61.40
19039;DHT22;9652;49.014;12.052;2023-05-07T00:31:51;15.70;61.50
19039;DHT22;9652;49.014;12.052;2023-05-07T00:34:20;15.70;62.40
19039;DHT22;9652;49.014;12.052;2023-05-07T00:36:48;15.60;61.70
19039;DHT22;9652;49.014;12.052;2023-05-07T00:39:16;15.60;61.70
19039;DHT22;9652;49.014;12.052;2023-05-07T00:41:43;15.60;61.90
19039;DHT22;9652;49.014;12.052;2023-05-07T00:44:10;15.60;61.90
19039;DHT22;9652;49.014;12.052;2023-05-07T00:46:37;15.60;62.00
19039;DHT22;9652;49.014;12.052;2023-05-07T00:49:05;15.50;62.10
19039;DHT22;9652;49.014;12.052;2023-05-07T00:51:33;15.50;62.10
19039;DHT22;9652;49.014;12.052;2023-05-07T00:54:02;15.50;62.20
19039;DHT22;9652;49.014;12.052;2023-05-07T00:56:31;15.50;62.50
19039;DHT22;9652;49.014;12.052;2023-05-07T00:58:59;15.60;62.60
19039;DHT22;9652;49.014;12.052;2023-05-07T01:01:28;15.40;62.30
19039;DHT22;9652;49.014;12.052;2023-05-07T01:03:55;15.40;62.30
19039;DHT22;9652;49.014;12.052;2023-05-07T01:06:23;15.40;62.40
19039;DHT22;9652;49.014;12.052;2023-05-07T01:08:54;15.40;62.50
19039;DHT22;9652;49.014;12.052;2023-05-07T01:11:22;15.40;62.70
19039;DHT22;9652;49.014;12.052;2023-05-07T01:13:52;15.40;63.50
19039;DHT22;9652;49.014;12.052;2023-05-07T01:16:20;15.40;62.90
19039;DHT22;9652;49.014;12.052;2023-05-07T01:18:47;15.30;62.70
19039;DHT22;9652;49.014;12.052;2023-05-07T01:21:16;15.30;62.70
19039;DHT22;9652;49.014;12.052;2023-05-07T01:23:47;15.30;62.90
19039;DHT22;9652;49.014;12.052;2023-05-07T01:26:14;15.30;63.10
19039;DHT22;9652;49.014;12.052;2023-05-07T01:28:44;15.20;62.80
19039;DHT22;9652;49.014;12.052;2023-05-07T01:31:12;15.40;63.10
19039;DHT22;9652;49.014;12.052;2023-05-07T01:33:41;15.20;63.00
19039;DHT22;9652;49.014;12.052;2023-05-07T01:36:12;15.20;63.10
19039;DHT22;9652;49.014;12.052;2023-05-07T01:38:40;15.20;63.20
19039;DHT22;9652;49.014;12.052;2023-05-07T01:41:10;15.20;63.30
19039;DHT22;9652;49.014;12.052;2023-05-07T01:43:40;15.20;63.40
19039;DHT22;9652;49.014;12.052;2023-05-07T01:46:09;15.20;63.50
19039;DHT22;9652;49.014;12.052;2023-05-07T01:48:37;15.20;63.50
19039;DHT22;9652;49.014;12.052;2023-05-07T01:51:05;15.20;63.60
19039;DHT22;9652;49.014;12.052;2023-05-07T01:53:35;15.20;63.80
19039;DHT22;9652;49.014;12.052;2023-05-07T01:56:03;15.20;63.90
19039;DHT22;9652;49.014;12.052;2023-05-07T01:58:34;15.20;63.80
19039;DHT22;9652;49.014;12.052;2023-05-07T02:01:01;15.20;64.00
19039;DHT22;9652;49.014;12.052;2023-05-07T02:03:28;15.20;64.00
19039;DHT22;9652;49.014;12.052;2023-05-07T02:06:04;15.20;63.90
19039;DHT22;9652;49.014;12.052;2023-05-07T02:08:34;15.20;63.90
19039;DHT22;9652;49.014;12.052;2023-05-07T02:11:02;15.20;63.90
19039;DHT22;9652;49.014;12.052;2023-05-07T02:13:32;15.20;64.00
19039;DHT22;9652;49.014;12.052;2023-05-07T02:16:01;15.20;64.00
19039;DHT22;9652;49.014;12.052;2023-05-07T02:18:28;15.20;64.00
19039;DHT22;9652;49.014;12.052;2023-05-07T02:20:56;15.20;64.00
19039;DHT22;9652;49.014;12.052;2023-05-07T02:23:23;15.20;64.00
19039;DHT22;9652;49.014;12.052;2023-05-07T02:25:51;15.20;64.00
19039;DHT22;9652;49.014;12.052;2023-05-07T02:28:18;15.20;64.00
19039;DHT22;9652;49.014;12.052;2023-05-07T02:30:57;15.20;64.90
19039;DHT22;9652;49.014;12.052;2023-05-07T02:33:26;15.20;64.10
19039;DHT22;9652;49.014;12.052;2023-05-07T02:35:53;15.20;64.00
19039;DHT22;9652;49.014;12.052;2023-05-07T02:38:20;15.20;64.10
19039;DHT22;9652;49.014;12.052;2023-05-07T02:40:47;15.10;64.10
19039;DHT22;9652;49.014;12.052;2023-05-07T02:43:16;15.10;64.10
19039;DHT22;9652;49.014;12.052;2023-05-07T02:45:46;15.20;64.20
19039;DHT22;9652;49.014;12.052;2023-05-07T02:48:15;15.10;64.20
19039;DHT22;9652;49.014;12.052;2023-05-07T02:50:42;15.10;64.40
19039;DHT22;9652;49.014;12.052;2023-05-07T02:53:11;14.90;64.10
19039;DHT22;9652;49.014;12.052;2023-05-07T02:55:38;15.00;64.20
19039;DHT22;9652;49.014;12.052;2023-05-07T02:58:05;15.00;64.40
19039;DHT22;9652;49.014;12.052;2023-05-07T03:00:35;15.00;64.40
19039;DHT22;9652;49.014;12.052;2023-05-07T03:03:30;15.00;64.40
19039;DHT22;9652;49.014;12.052;2023-05-07T03:05:57;15.00;64.50
19039;DHT22;9652;49.014;12.052;2023-05-07T03:08:24;15.00;65.20
19039;DHT22;9652;49.014;12.052;2023-05-07T03:10:51;14.90;64.50
19039;DHT22;9652;49.014;12.052;2023-05-07T03:13:18;14.90;64.50
19039;DHT22;9652;49.014;12.052;2023-05-07T03:15:46;14.90;64.70
19039;DHT22;9652;49.014;12.052;2023-05-07T03:18:13;14.90;64.70
19039;DHT22;9652;49.014;12.052;2023-05-07T03:20:42;14.90;64.90
19039;DHT22;9652;49.014;12.052;2023-05-07T03:23:09;14.90;65.10
19039;DHT22;9652;49.014;12.052;2023-05-07T03:25:36;14.80;65.10
19039;DHT22;9652;49.014;12.052;2023-05-07T03:28:03;14.80;65.10
19039;DHT22;9652;49.014;12.052;2023-05-07T03:30:39;14.80;65.20
19039;DHT22;9652;49.014;12.052;2023-05-07T03:33:06;14.90;65.30
19039;DHT22;9652;49.014;12.052;2023-05-07T03:35:33;15.00;65.40
19039;DHT22;9652;49.014;12.052;2023-05-07T03:38:02;14.80;65.40
19039;DHT22;9652;49.014;12.052;2023-05-07T03:40:33;14.80;65.50
19039;DHT22;9652;49.014;12.052;2023-05-07T03:43:01;14.90;65.50
19039;DHT22;9652;49.014;12.052;2023-05-07T03:45:30;14.90;65.60
19039;DHT22;9652;49.014;12.052;2023-05-07T03:48:06;14.80;65.60
19039;DHT22;9652;49.014;12.052;2023-05-07T03:50:34;14.90;65.70
19039;DHT22;9652;49.014;12.052;2023-05-07T03:53:02;14.90;65.70
19039;DHT22;9652;49.014;12.052;2023-05-07T03:55:35;14.90;65.90
19039;DHT22;9652;49.014;12.052;2023-05-07T03:58:02;15.00;65.80
19039;DHT22;9652;49.014;12.052;2023-05-07T04:00:30;14.90;65.70
19039;DHT22;9652;49.014;12.052;2023-05-07T04:02:59;14.90;65.80
19039;DHT22;9652;49.014;12.052;2023-05-07T04:05:30;14.90;65.90
19039;DHT22;9652;49.014;12.052;2023-05-07T04:08:00;15.00;65.90
19039;DHT22;9652;49.014;12.052;2023-05-07T04:10:38;15.10;66.00
19039;DHT22;9652;49.014;12.052;2023-05-07T04:13:09;15.00;65.90
19039;DHT22;9652;49.014;12.052;2023-05-07T04:15:37;15.00;66.10
19039;DHT22;9652;49.014;12.052;2023-05-07T04:18:07;15.00;66.20
19039;DHT22;9652;49.014;12.052;2023-05-07T04:20:35;15.10;66.20
19039;DHT22;9652;49.014;12.052;2023-05-07T04:23:06;15.10;67.10
19039;DHT22;9652;49.014;12.052;2023-05-07T04:25:33;15.00;66.20
19039;DHT22;9652;49.014;12.052;2023-05-07T04:28:07;15.10;66.30
19039;DHT22;9652;49.014;12.052;2023-05-07T04:30:35;15.20;66.30
19039;DHT22;9652;49.014;12.052;2023-05-07T04:33:05;15.20;66.40
19039;DHT22;9652;49.014;12.052;2023-05-07T04:35:33;15.20;66.40
19039;DHT22;9652;49.014;12.052;2023-05-07T04:38:03;15.30;66.60
19039;DHT22;9652;49.014;12.052;2023-05-07T04:40:31;15.30;66.60
19039;DHT22;9652;49.014;12.052;2023-05-07T04:43:01;15.40;66.80
19039;DHT22;9652;49.014;12.052;2023-05-07T04:45:31;15.40;66.90
19039;DHT22;9652;49.014;12.052;2023-05-07T04:47:59;15.50;67.10
19039;DHT22;9652;49.014;12.052;2023-05-07T04:50:27;15.60;67.20
19039;DHT22;9652;49.014;12.052;2023-05-07T04:52:59;15.70;67.20
19039;DHT22;9652;49.014;12.052;2023-05-07T04:55:26;15.80;67.20
19039;DHT22;9652;49.014;12.052;2023-05-07T04:57:55;15.90;67.20
19039;DHT22;9652;49.014;12.052;2023-05-07T05:00:23;16.00;67.30
19039;DHT22;9652;49.014;12.052;2023-05-07T05:02:52;16.10;67.20
19039;DHT22;9652;49.014;12.052;2023-05-07T05:05:21;16.20;67.30
19039;DHT22;9652;49.014;12.052;2023-05-07T05:07:51;16.30;67.30
19039;DHT22;9652;49.014;12.052;2023-05-07T05:10:19;16.50;67.30
19039;DHT22;9652;49.014;12.052;2023-05-07T05:12:46;16.60;67.10
19039;DHT22;9652;49.014;12.052;2023-05-07T05:15:15;16.70;66.90
19039;DHT22;9652;49.014;12.052;2023-05-07T05:17:42;16.90;66.70
19039;DHT22;9652;49.014;12.052;2023-05-07T05:20:10;17.00;66.60
19039;DHT22;9652;49.014;12.052;2023-05-07T05:22:38;17.10;66.40
19039;DHT22;9652;49.014;12.052;2023-05-07T05:25:07;17.20;66.00
19039;DHT22;9652;49.014;12.052;2023-05-07T05:27:34;17.30;65.60
19039;DHT22;9652;49.014;12.052;2023-05-07T05:30:02;17.40;65.30
19039;DHT22;9652;49.014;12.052;2023-05-07T05:32:32;17.40;65.00
19039;DHT22;9652;49.014;12.052;2023-05-07T05:34:59;17.50;64.90
19039;DHT22;9652;49.014;12.052;2023-05-07T05:37:28;17.60;64.60
19039;DHT22;9652;49.014;12.052;2023-05-07T05:39:58;17.50;64.60
19039;DHT22;9652;49.014;12.052;2023-05-07T05:42:27;17.60;64.80
19039;DHT22;9652;49.014;12.052;2023-05-07T05:44:55;17.70;64.80
19039;DHT22;9652;49.014;12.052;2023-05-07T05:47:23;17.70;64.60
19039;DHT22;9652;49.014;12.052;2023-05-07T05:49:55;17.80;64.40
19039;DHT22;9652;49.014;12.052;2023-05-07T05:52:23;17.80;64.10
19039;DHT22;9652;49.014;12.052;2023-05-07T05:54:50;18.00;63.90
19039;DHT22;9652;49.014;12.052;2023-05-07T05:57:19;18.00;63.60
19039;DHT22;9652;49.014;12.052;2023-05-07T05:59:46;18.00;63.60
19039;DHT22;9652;49.014;12.052;2023-05-07T06:02:13;18.10;63.60
19039;DHT22;9652;49.014;12.052;2023-05-07T06:04:40;18.10;63.50
19039;DHT22;9652;49.014;12.052;2023-05-07T06:07:11;18.20;63.40
19039;DHT22;9652;49.014;12.052;2023-05-07T06:09:38;18.20;63.30
19039;DHT22;9652;49.014;12.052;2023-05-07T06:12:05;18.30;63.10
19039;DHT22;9652;49.014;12.052;2023-05-07T06:14:33;18.30;62.90
19039;DHT22;9652;49.014;12.052;2023-05-07T06:17:00;18.30;62.80
19039;DHT22;9652;49.014;12.052;2023-05-07T06:19:27;18.40;62.90
19039;DHT22;9652;49.014;12.052;2023-05-07T06:21:56;18.50;63.00
19039;DHT22;9652;49.014;12.052;2023-05-07T06:24:25;18.50;62.90
19039;DHT22;9652;49.014;12.052;2023-05-07T06:26:52;18.60;62.80
19039;DHT22;9652;49.014;12.052;2023-05-07T06:29:20;18.70;62.80
19039;DHT22;9652;49.014;12.052;2023-05-07T06:31:48;18.80;62.60
19039;DHT22;9652;49.014;12.052;2023-05-07T06:34:15;18.90;62.50
19039;DHT22;9652;49.014;12.052;2023-05-07T06:36:43;18.90;62.40
19039;DHT22;9652;49.014;12.052;2023-05-07T06:39:22;19.00;62.20
19039;DHT22;9652;49.014;12.052;2023-05-07T06:41:53;19.10;62.20
19039;DHT22;9652;49.014;12.052;2023-05-07T06:44:25;19.20;62.60
19039;DHT22;9652;49.014;12.052;2023-05-07T06:47:07;19.40;62.80
19039;DHT22;9652;49.014;12.052;2023-05-07T06:49:37;19.50;62.50
19039;DHT22;9652;49.014;12.052;2023-05-07T06:52:04;19.70;62.10
19039;DHT22;9652;49.014;12.052;2023-05-07T06:54:32;19.80;61.80
19039;DHT22;9652;49.014;12.052;2023-05-07T06:57:01;19.90;61.50
19039;DHT22;9652;49.014;12.052;2023-05-07T06:59:29;20.10;61.30
19039;DHT22;9652;49.014;12.052;2023-05-07T07:01:56;20.20;61.10
19039;DHT22;9652;49.014;12.052;2023-05-07T07:04:23;20.30;60.50
19039;DHT22;9652;49.014;12.052;2023-05-07T07:06:58;20.30;60.00
19039;DHT22;9652;49.014;12.052;2023-05-07T07:09:25;20.40;59.80
19039;DHT22;9652;49.014;12.052;2023-05-07T07:11:54;20.40;59.60
19039;DHT22;9652;49.014;12.052;2023-05-07T07:14:23;20.40;59.50
19039;DHT22;9652;49.014;12.052;2023-05-07T07:16:52;20.40;59.30
19039;DHT22;9652;49.014;12.052;2023-05-07T07:19:20;20.50;59.30
19039;DHT22;9652;49.014;12.052;2023-05-07T07:21:51;20.50;59.30
19039;DHT22;9652;49.014;12.052;2023-05-07T07:24:18;20.50;59.40
19039;DHT22;9652;49.014;12.052;2023-05-07T07:26:48;20.60;59.50
19039;DHT22;9652;49.014;12.052;2023-05-07T07:29:16;20.60;59.60
19039;DHT22;9652;49.014;12.052;2023-05-07T07:31:47;20.70;59.70
19039;DHT22;9652;49.014;12.052;2023-05-07T07:34:15;20.90;59.70
19039;DHT22;9652;49.014;12.052;2023-05-07T07:36:42;20.90;59.70
19039;DHT22;9652;49.014;12.052;2023-05-07T07:39:09;21.10;59.60
19039;DHT22;9652;49.014;12.052;2023-05-07T07:41:36;21.20;59.60
19039;DHT22;9652;49.014;12.052;2023-05-07T07:44:04;21.30;59.50
19039;DHT22;9652;49.014;12.052;2023-05-07T07:46:35;21.50;59.30
19039;DHT22;9652;49.014;12.052;2023-05-07T07:49:04;21.60;59.10
19039;DHT22;9652;49.014;12.052;2023-05-07T07:51:31;21.70;58.70
19039;DHT22;9652;49.014;12.052;2023-05-07T07:54:00;21.90;58.70
19039;DHT22;9652;49.014;12.052;2023-05-07T07:56:28;21.90;58.50
19039;DHT22;9652;49.014;12.052;2023-05-07T07:58:55;22.10;58.50
19039;DHT22;9652;49.014;12.052;2023-05-07T08:01:22;22.10;58.40
19039;DHT22;9652;49.014;12.052;2023-05-07T08:03:50;22.30;58.30
19039;DHT22;9652;49.014;12.052;2023-05-07T08:06:19;22.30;58.10
19039;DHT22;9652;49.014;12.052;2023-05-07T08:08:46;22.50;57.70
19039;DHT22;9652;49.014;12.052;2023-05-07T08:11:13;22.50;57.40
19039;DHT22;9652;49.014;12.052;2023-05-07T08:13:41;22.60;57.10
19039;DHT22;9652;49.014;12.052;2023-05-07T08:16:08;22.60;56.90
19039;DHT22;9652;49.014;12.052;2023-05-07T08:18:36;22.70;56.70
19039;DHT22;9652;49.014;12.052;2023-05-07T08:21:03;22.70;56.60
19039;DHT22;9652;49.014;12.052;2023-05-07T08:23:33;22.70;56.80
19039;DHT22;9652;49.014;12.052;2023-05-07T08:26:00;22.80;57.00
19039;DHT22;9652;49.014;12.052;2023-05-07T08:28:30;22.80;57.00
19039;DHT22;9652;49.014;12.052;2023-05-07T08:30:57;22.90;56.80
19039;DHT22;9652;49.014;12.052;2023-05-07T08:33:27;23.00;56.60
19039;DHT22;9652;49.014;12.052;2023-05-07T08:35:54;23.10;56.30
19039;DHT22;9652;49.014;12.052;2023-05-07T08:38:21;23.30;56.10
19039;DHT22;9652;49.014;12.052;2023-05-07T08:40:50;23.30;55.80
19039;DHT22;9652;49.014;12.052;2023-05-07T08:43:19;23.30;55.70
19039;DHT22;9652;49.014;12.052;2023-05-07T08:45:51;23.40;55.70
19039;DHT22;9652;49.014;12.052;2023-05-07T08:48:23;23.50;55.60
19039;DHT22;9652;49.014;12.052;2023-05-07T08:50:58;23.50;55.40
19039;DHT22;9652;49.014;12.052;2023-05-07T08:53:25;23.50;55.60
19039;DHT22;9652;49.014;12.052;2023-05-07T08:55:55;23.60;55.60
19039;DHT22;9652;49.014;12.052;2023-05-07T08:58:23;23.70;55.60
19039;DHT22;9652;49.014;12.052;2023-05-07T09:00:50;23.90;55.60
19039;DHT22;9652;49.014;12.052;2023-05-07T09:03:20;24.00;55.50
19039;DHT22;9652;49.014;12.052;2023-05-07T09:05:50;24.20;55.40
19039;DHT22;9652;49.014;12.052;2023-05-07T09:08:24;24.30;55.40
19039;DHT22;9652;49.014;12.052;2023-05-07T09:10:56;24.50;54.90
19039;DHT22;9652;49.014;12.052;2023-05-07T09:13:24;24.70;54.80
19039;DHT22;9652;49.014;12.052;2023-05-07T09:15:51;24.80;54.40
19039;DHT22;9652;49.014;12.052;2023-05-07T09:18:19;24.90;54.00
19039;DHT22;9652;49.014;12.052;2023-05-07T09:20:48;25.00;53.70
19039;DHT22;9652;49.014;12.052;2023-05-07T09:23:18;25.00;53.50
19039;DHT22;9652;49.014;12.052;2023-05-07T09:25:45;25.10;53.40
19039;DHT22;9652;49.014;12.052;2023-05-07T09:28:23;25.20;53.50
19039;DHT22;9652;49.014;12.052;2023-05-07T09:30:51;25.30;53.50
19039;DHT22;9652;49.014;12.052;2023-05-07T09:33:19;25.40;53.40
19039;DHT22;9652;49.014;12.052;2023-05-07T09:35:51;25.50;53.40
19039;DHT22;9652;49.014;12.052;2023-05-07T09:38:20;25.60;53.90
19039;DHT22;9652;49.014;12.052;2023-05-07T09:41:02;25.70;53.10
19039;DHT22;9652;49.014;12.052;2023-05-07T09:43:34;25.90;52.20
19039;DHT22;9652;49.014;12.052;2023-05-07T09:46:07;25.90;51.80
19039;DHT22;9652;49.014;12.052;2023-05-07T09:48:41;26.00;51.50
19039;DHT22;9652;49.014;12.052;2023-05-07T09:51:17;26.00;51.50
19039;DHT22;9652;49.014;12.052;2023-05-07T09:53:58;26.00;51.40
19039;DHT22;9652;49.014;12.052;2023-05-07T09:56:27;26.10;51.80
19039;DHT22;9652;49.014;12.052;2023-05-07T09:59:00;26.10;51.50
19039;DHT22;9652;49.014;12.052;2023-05-07T10:01:31;26.10;50.70
19039;DHT22;9652;49.014;12.052;2023-05-07T10:04:01;26.10;50.70
19039;DHT22;9652;49.014;12.052;2023-05-07T10:06:30;26.10;50.60
19039;DHT22;9652;49.014;12.052;2023-05-07T10:08:59;26.10;50.80
19039;DHT22;9652;49.014;12.052;2023-05-07T10:11:28;26.10;50.80
19039;DHT22;9652;49.014;12.052;2023-05-07T10:13:55;26.10;50.80
19039;DHT22;9652;49.014;12.052;2023-05-07T10:16:25;26.10;50.60
19039;DHT22;9652;49.014;12.052;2023-05-07T10:18:54;26.10;50.50
19039;DHT22;9652;49.014;12.052;2023-05-07T10:21:24;26.10;50.70
19039;DHT22;9652;49.014;12.052;2023-05-07T10:24:03;26.10;50.70
19039;DHT22;9652;49.014;12.052;2023-05-07T10:26:35;26.20;50.50
19039;DHT22;9652;49.014;12.052;2023-05-07T10:29:07;26.20;50.50
19039;DHT22;9652;49.014;12.052;2023-05-07T10:31:50;26.10;50.30
19039;DHT22;9652;49.014;12.052;2023-05-07T10:34:24;26.20;50.00
19039;DHT22;9652;49.014;12.052;2023-05-07T10:36:55;26.20;50.20
19039;DHT22;9652;49.014;12.052;2023-05-07T10:39:25;26.20;50.50
19039;DHT22;9652;49.014;12.052;2023-05-07T10:41:54;26.20;50.60
19039;DHT22;9652;49.014;12.052;2023-05-07T10:44:26;26.30;50.50
19039;DHT22;9652;49.014;12.052;2023-05-07T10:47:05;26.30;49.90
19039;DHT22;9652;49.014;12.052;2023-05-07T10:49:37;26.40;49.60
19039;DHT22;9652;49.014;12.052;2023-05-07T10:52:30;26.40;49.70
19039;DHT22;9652;49.014;12.052;2023-05-07T10:55:20;26.30;49.50
19039;DHT22;9652;49.014;12.052;2023-05-07T10:58:22;26.30;49.00
19039;DHT22;9652;49.014;12.052;2023-05-07T11:00:57;26.20;48.90
19039;DHT22;9652;49.014;12.052;2023-05-07T11:03:33;26.10;48.90
19039;DHT22;9652;49.014;12.052;2023-05-07T11:06:12;26.00;49.10
19039;DHT22;9652;49.014;12.052;2023-05-07T11:09:06;25.90;49.00
19039;DHT22;9652;49.014;12.052;2023-05-07T11:11:45;25.90;49.30
19039;DHT22;9652;49.014;12.052;2023-05-07T11:14:46;25.80;49.00
19039;DHT22;9652;49.014;12.052;2023-05-07T11:17:21;25.80;48.90
19039;DHT22;9652;49.014;12.052;2023-05-07T11:19:56;25.80;49.50
19039;DHT22;9652;49.014;12.052;2023-05-07T11:22:46;25.80;49.60
19039;DHT22;9652;49.014;12.052;2023-05-07T11:25:46;25.90;49.70
19039;DHT22;9652;49.014;12.052;2023-05-07T11:28:19;25.90;49.10
19039;DHT22;9652;49.014;12.052;2023-05-07T11:30:56;25.90;49.10
19039;DHT22;9652;49.014;12.052;2023-05-07T11:33:25;25.90;49.30
19039;DHT22;9652;49.014;12.052;2023-05-07T11:35:56;25.90;49.50
19039;DHT22;9652;49.014;12.052;2023-05-07T11:38:30;26.00;49.70
19039;DHT22;9652;49.014;12.052;2023-05-07T11:41:01;26.10;49.80
19039;DHT22;9652;49.014;12.052;2023-05-07T11:43:29;26.30;49.80
19039;DHT22;9652;49.014;12.052;2023-05-07T11:46:05;26.50;49.70
19039;DHT22;9652;49.014;12.052;2023-05-07T11:48:35;26.70;48.90
19039;DHT22;9652;49.014;12.052;2023-05-07T11:51:04;26.80;48.80
19039;DHT22;9652;49.014;12.052;2023-05-07T11:53:39;27.00;48.50
19039;DHT22;9652;49.014;12.052;2023-05-07T11:56:11;27.00;48.10
19039;DHT22;9652;49.014;12.052;2023-05-07T11:58:39;27.10;48.20
19039;DHT22;9652;49.014;12.052;2023-05-07T12:01:07;27.20;48.00
19039;DHT22;9652;49.014;12.052;2023-05-07T12:03:36;27.20;47.80
19039;DHT22;9652;49.014;12.052;2023-05-07T12:06:07;27.20;47.30
19039;DHT22;9652;49.014;12.052;2023-05-07T12:08:36;27.10;47.10
19039;DHT22;9652;49.014;12.052;2023-05-07T12:11:07;26.90;47.10
19039;DHT22;9652;49.014;12.052;2023-05-07T12:13:37;26.80;47.10
19039;DHT22;9652;49.014;12.052;2023-05-07T12:16:06;26.70;47.20
19039;DHT22;9652;49.014;12.052;2023-05-07T12:18:35;26.70;47.10
19039;DHT22;9652;49.014;12.052;2023-05-07T12:21:06;26.60;47.40
19039;DHT22;9652;49.014;12.052;2023-05-07T12:23:34;26.50;47.40
19039;DHT22;9652;49.014;12.052;2023-05-07T12:26:03;26.50;47.20
19039;DHT22;9652;49.014;12.052;2023-05-07T12:28:35;26.50;47.10
19039;DHT22;9652;49.014;12.052;2023-05-07T12:31:04;26.40;47.10
19039;DHT22;9652;49.014;12.052;2023-05-07T12:33:32;26.40;47.00
19039;DHT22;9652;49.014;12.052;2023-05-07T12:36:04;26.40;47.20
19039;DHT22;9652;49.014;12.052;2023-05-07T12:38:36;26.50;47.10
19039;DHT22;9652;49.014;12.052;2023-05-07T12:41:04;26.50;47.10
19039;DHT22;9652;49.014;12.052;2023-05-07T12:43:32;26.60;47.10
19039;DHT22;9652;49.014;12.052;2023-05-07T12:46:03;26.70;47.30
19039;DHT22;9652;49.014;12.052;2023-05-07T12:48:31;26.70;46.60
19039;DHT22;9652;49.014;12.052;2023-05-07T12:51:00;26.80;46.50
19039;DHT22;9652;49.014;12.052;2023-05-07T12:53:31;26.80;46.40
19039;DHT22;9652;49.014;12.052;2023-05-07T12:55:59;26.80;46.20
19039;DHT22;9652;49.014;12.052;2023-05-07T12:58:27;26.80;46.20
19039;DHT22;9652;49.014;12.052;2023-05-07T13:00:57;26.90;46.00
19039;DHT22;9652;49.014;12.052;2023-05-07T13:03:27;26.90;46.00
19039;DHT22;9652;49.014;12.052;2023-05-07T13:05:57;27.00;45.80
19039;DHT22;9652;49.014;12.052;2023-05-07T13:08:27;27.00;45.50
19039;DHT22;9652;49.014;12.052;2023-05-07T13:10:57;27.10;45.60
19039;DHT22;9652;49.014;12.052;2023-05-07T13:13:28;27.10;45.80
19039;DHT22;9652;49.014;12.052;2023-05-07T13:15:56;27.20;46.00
19039;DHT22;9652;49.014;12.052;2023-05-07T13:18:24;27.30;46.00
19039;DHT22;9652;49.014;12.052;2023-05-07T13:20:52;27.40;45.80
19039;DHT22;9652;49.014;12.052;2023-05-07T13:23:19;27.60;46.20
19039;DHT22;9652;49.014;12.052;2023-05-07T13:25:48;27.80;46.20
19039;DHT22;9652;49.014;12.052;2023-05-07T13:28:16;28.10;46.00
19039;DHT22;9652;49.014;12.052;2023-05-07T13:30:43;28.50;46.20
19039;DHT22;9652;49.014;12.052;2023-05-07T13:33:11;28.90;45.80
19039;DHT22;9652;49.014;12.052;2023-05-07T13:35:38;29.20;45.60
19039;DHT22;9652;49.014;12.052;2023-05-07T13:38:05;29.60;45.50
19039;DHT22;9652;49.014;12.052;2023-05-07T13:40:32;29.90;45.00
19039;DHT22;9652;49.014;12.052;2023-05-07T13:43:01;30.40;44.40
19039;DHT22;9652;49.014;12.052;2023-05-07T13:45:28;30.70;43.60
19039;DHT22;9652;49.014;12.052;2023-05-07T13:47:56;31.00;43.60
19039;DHT22;9652;49.014;12.052;2023-05-07T13:50:23;31.20;42.10
19039;DHT22;9652;49.014;12.052;2023-05-07T13:52:52;31.30;41.10
19039;DHT22;9652;49.014;12.052;2023-05-07T13:55:20;31.40;40.10
19039;DHT22;9652;49.014;12.052;2023-05-07T13:57:55;31.30;39.30
19039;DHT22;9652;49.014;12.052;2023-05-07T14:00:24;31.10;38.70
19039;DHT22;9652;49.014;12.052;2023-05-07T14:02:53;31.00;39.10
19039;DHT22;9652;49.014;12.052;2023-05-07T14:05:20;30.90;39.40
19039;DHT22;9652;49.014;12.052;2023-05-07T14:07:48;30.80;39.00
19039;DHT22;9652;49.014;12.052;2023-05-07T14:10:17;30.70;39.30
19039;DHT22;9652;49.014;12.052;2023-05-07T14:12:45;30.70;39.50
19039;DHT22;9652;49.014;12.052;2023-05-07T14:15:14;30.70;39.40
19039;DHT22;9652;49.014;12.052;2023-05-07T14:17:43;30.80;39.20
19039;DHT22;9652;49.014;12.052;2023-05-07T14:20:11;30.90;38.50
19039;DHT22;9652;49.014;12.052;2023-05-07T14:22:38;31.00;38.70
19039;DHT22;9652;49.014;12.052;2023-05-07T14:25:07;31.10;38.80
19039;DHT22;9652;49.014;12.052;2023-05-07T14:27:36;31.20;38.70
19039;DHT22;9652;49.014;12.052;2023-05-07T14:30:03;31.40;37.50
19039;DHT22;9652;49.014;12.052;2023-05-07T14:32:32;31.40;37.50
19039;DHT22;9652;49.014;12.052;2023-05-07T14:35:00;31.30;37.40
19039;DHT22;9652;49.014;12.052;2023-05-07T14:37:27;31.30;37.50
19039;DHT22;9652;49.014;12.052;2023-05-07T14:39:54;31.30;37.20
19039;DHT22;9652;49.014;12.052;2023-05-07T14:42:22;31.30;37.20
19039;DHT22;9652;49.014;12.052;2023-05-07T14:44:49;31.30;36.60
19039;DHT22;9652;49.014;12.052;2023-05-07T14:47:16;31.20;36.90
19039;DHT22;9652;49.014;12.052;2023-05-07T14:49:43;31.20;36.60
19039;DHT22;9652;49.014;12.052;2023-05-07T14:52:11;31.10;36.50
19039;DHT22;9652;49.014;12.052;2023-05-07T14:54:38;31.10;36.50
19039;DHT22;9652;49.014;12.052;2023-05-07T14:57:06;31.10;36.50
19039;DHT22;9652;49.014;12.052;2023-05-07T14:59:36;31.00;36.50
19039;DHT22;9652;49.014;12.052;2023-05-07T15:02:04;31.00;36.30
19039;DHT22;9652;49.014;12.052;2023-05-07T15:04:33;31.00;36.20
19039;DHT22;9652;49.014;12.052;2023-05-07T15:07:00;30.90;36.00
19039;DHT22;9652;49.014;12.052;2023-05-07T15:09:29;30.80;36.10
19039;DHT22;9652;49.014;12.052;2023-05-07T15:11:56;30.70;36.00
19039;DHT22;9652;49.014;12.052;2023-05-07T15:14:23;30.60;36.40
19039;DHT22;9652;49.014;12.052;2023-05-07T15:16:50;30.40;36.50
19039;DHT22;9652;49.014;12.052;2023-05-07T15:19:17;30.30;36.50
19039;DHT22;9652;49.014;12.052;2023-05-07T15:21:44;30.20;36.40
19039;DHT22;9652;49.014;12.052;2023-05-07T15:24:11;30.00;36.50
19039;DHT22;9652;49.014;12.052;2023-05-07T15:26:41;29.80;36.80
19039;DHT22;9652;49.014;12.052;2023-05-07T15:29:08;29.70;37.10
19039;DHT22;9652;49.014;12.052;2023-05-07T15:31:35;29.50;37.10
19039;DHT22;9652;49.014;12.052;2023-05-07T15:34:04;29.40;37.20
19039;DHT22;9652;49.014;12.052;2023-05-07T15:36:31;29.20;37.20
19039;DHT22;9652;49.014;12.052;2023-05-07T15:38:58;29.00;37.20
19039;DHT22;9652;49.014;12.052;2023-05-07T15:41:27;28.90;37.40
19039;DHT22;9652;49.014;12.052;2023-05-07T15:43:56;28.80;37.60
19039;DHT22;9652;49.014;12.052;2023-05-07T15:46:24;28.60;37.90